createdAt,value
2022-10-07T00:02:17.815Z,8.32
2022-10-07T00:04:44.093Z,8.32
2022-10-07T00:07:10.323Z,8.42
2022-10-07T00:09:36.585Z,8.36
2022-10-07T00:12:02.809Z,8.41
2022-10-07T00:14:29.037Z,8.37
2022-10-07T00:16:55.361Z,8.42
2022-10-07T00:19:21.627Z,8.26
2022-10-07T00:21:47.857Z,8.32
2022-10-07T00:24:14.109Z,8.35
2022-10-07T00:26:40.328Z,8.34
2022-10-07T00:29:06.552Z,8.27
2022-10-07T00:31:32.788Z,8.27
2022-10-07T00:33:59.009Z,8.38
2022-10-07T00:36:25.225Z,8.20
2022-10-07T00:38:51.355Z,8.15
2022-10-07T00:41:17.456Z,8.20
2022-10-07T00:43:43.547Z,8.28
2022-10-07T00:46:09.676Z,8.27
2022-10-07T00:48:35.780Z,8.24
2022-10-07T00:51:01.870Z,8.12
2022-10-07T00:53:28.016Z,8.16
2022-10-07T00:55:54.106Z,8.19
2022-10-07T00:58:20.215Z,8.18
2022-10-07T01:00:46.340Z,8.04
2022-10-07T01:03:12.439Z,8.06
2022-10-07T01:05:38.529Z,8.08
2022-10-07T01:08:04.629Z,8.08
2022-10-07T01:10:30.720Z,8.10
2022-10-07T01:12:56.796Z,7.96
2022-10-07T01:15:22.901Z,8.08
2022-10-07T01:17:49.335Z,8.00
2022-10-07T01:20:15.446Z,7.94
2022-10-07T01:22:41.549Z,7.87
2022-10-07T01:25:07.636Z,7.92
2022-10-07T01:27:33.734Z,7.86
2022-10-07T01:29:59.843Z,7.82
2022-10-07T01:32:25.933Z,7.96
2022-10-07T01:34:52.017Z,7.91
2022-10-07T01:37:18.135Z,7.88
2022-10-07T01:39:44.221Z,7.81
2022-10-07T01:42:10.317Z,7.89
2022-10-07T01:44:36.415Z,7.87
2022-10-07T01:47:02.509Z,7.79
2022-10-07T01:49:28.623Z,7.79
2022-10-07T01:51:54.723Z,7.79
2022-10-07T01:54:20.797Z,7.85
2022-10-07T01:56:46.892Z,7.94
2022-10-07T01:59:13.045Z,7.85
2022-10-07T02:01:39.195Z,7.90
2022-10-07T02:04:05.395Z,7.99
2022-10-07T02:06:31.592Z,7.95
2022-10-07T02:08:57.693Z,7.89
2022-10-07T02:11:23.789Z,7.92
2022-10-07T02:13:49.916Z,7.87
2022-10-07T02:16:16.112Z,7.76
2022-10-07T02:18:42.227Z,7.84
2022-10-07T02:21:08.357Z,7.87
2022-10-07T02:23:34.435Z,7.85
2022-10-07T02:26:00.538Z,7.82
2022-10-07T02:28:26.775Z,7.77
2022-10-07T02:30:53.071Z,7.73
2022-10-07T02:33:19.164Z,7.73
2022-10-07T02:35:45.284Z,7.74
2022-10-07T02:38:11.392Z,7.72
2022-10-07T02:40:37.492Z,7.65
2022-10-07T02:43:03.603Z,7.66
2022-10-07T02:45:29.699Z,7.67
2022-10-07T02:47:55.783Z,7.68
2022-10-07T02:50:21.904Z,7.59
2022-10-07T02:52:47.985Z,7.61
2022-10-07T02:55:14.074Z,7.68
2022-10-07T02:57:40.202Z,7.73
2022-10-07T03:00:10.774Z,7.59
2022-10-07T03:02:37.354Z,7.57
2022-10-07T03:05:03.474Z,7.64
2022-10-07T03:07:29.565Z,7.71
2022-10-07T03:09:55.665Z,7.76
2022-10-07T03:12:21.791Z,7.74
2022-10-07T03:14:47.913Z,7.72
2022-10-07T03:17:14.023Z,7.68
2022-10-07T03:19:40.136Z,7.64
2022-10-07T03:22:06.243Z,7.73
2022-10-07T03:24:32.339Z,7.83
2022-10-07T03:26:58.458Z,7.84
2022-10-07T03:29:24.569Z,7.94
2022-10-07T03:31:50.671Z,7.95
2022-10-07T03:34:16.798Z,8.00
2022-10-07T03:36:42.905Z,7.90
2022-10-07T03:39:08.986Z,7.96
2022-10-07T03:41:35.117Z,7.88
2022-10-07T03:44:01.211Z,7.97
2022-10-07T03:46:27.356Z,8.04
2022-10-07T03:48:53.551Z,8.06
2022-10-07T03:51:19.672Z,8.11
2022-10-07T03:53:45.749Z,8.11
2022-10-07T03:56:11.869Z,8.03
2022-10-07T03:58:37.954Z,7.95
2022-10-07T04:01:04.045Z,7.88
2022-10-07T04:03:30.198Z,7.83
2022-10-07T04:05:56.285Z,7.86
2022-10-07T04:08:22.378Z,7.84
2022-10-07T04:10:48.490Z,7.83
2022-10-07T04:13:14.568Z,7.84
2022-10-07T04:15:40.654Z,7.84
2022-10-07T04:18:06.788Z,7.80
2022-10-07T04:20:32.901Z,7.87
2022-10-07T04:22:58.993Z,7.73
2022-10-07T04:25:25.117Z,7.72
2022-10-07T04:27:52.194Z,7.79
2022-10-07T04:30:18.352Z,7.85
2022-10-07T04:32:44.470Z,7.86
2022-10-07T04:35:10.570Z,7.87
2022-10-07T04:37:36.654Z,7.84
2022-10-07T04:40:02.757Z,7.76
2022-10-07T04:42:28.833Z,7.80
2022-10-07T04:44:54.914Z,7.74
2022-10-07T04:47:21.032Z,7.76
2022-10-07T04:49:47.117Z,7.76
2022-10-07T04:52:13.229Z,7.72
2022-10-07T04:54:39.342Z,7.68
2022-10-07T04:57:05.438Z,7.67
2022-10-07T04:59:31.783Z,7.60
2022-10-07T05:01:58.781Z,7.58
2022-10-07T05:04:24.948Z,7.67
2022-10-07T05:06:51.034Z,7.75
2022-10-07T05:09:17.197Z,7.68
2022-10-07T05:11:43.296Z,7.52
2022-10-07T05:14:09.391Z,7.56
2022-10-07T05:16:36.252Z,7.60
2022-10-07T05:19:02.770Z,7.47
2022-10-07T05:21:29.221Z,7.53
2022-10-07T05:23:55.869Z,7.47
2022-10-07T05:26:22.182Z,7.43
2022-10-07T05:28:48.266Z,7.41
2022-10-07T05:31:14.404Z,7.44
2022-10-07T05:33:40.593Z,7.46
2022-10-07T05:36:06.690Z,7.46
2022-10-07T05:38:32.944Z,7.32
2022-10-07T05:40:59.033Z,7.38
2022-10-07T05:43:25.125Z,7.44
2022-10-07T05:45:51.344Z,7.47
2022-10-07T05:48:17.456Z,7.34
2022-10-07T05:50:43.558Z,7.28
2022-10-07T05:53:09.668Z,7.24
2022-10-07T05:55:40.034Z,7.21
2022-10-07T05:58:06.278Z,7.34
2022-10-07T06:00:32.379Z,7.42
2022-10-07T06:02:58.526Z,7.41
2022-10-07T06:05:24.693Z,7.50
2022-10-07T06:07:50.810Z,7.52
2022-10-07T06:10:16.888Z,7.53
2022-10-07T06:12:42.978Z,7.59
2022-10-07T06:15:09.088Z,7.72
2022-10-07T06:17:35.207Z,7.73
2022-10-07T06:20:01.302Z,7.75
2022-10-07T06:22:27.404Z,7.76
2022-10-07T06:24:53.561Z,7.65
2022-10-07T06:27:19.659Z,7.82
2022-10-07T06:29:45.756Z,7.79
2022-10-07T06:32:11.849Z,7.74
2022-10-07T06:34:37.939Z,7.86
2022-10-07T06:37:04.029Z,7.83
2022-10-07T06:39:30.122Z,7.67
2022-10-07T06:41:56.221Z,7.87
2022-10-07T06:44:22.335Z,7.98
2022-10-07T06:46:48.453Z,7.99
2022-10-07T06:49:14.552Z,8.03
2022-10-07T06:51:40.650Z,8.17
2022-10-07T06:54:06.732Z,8.49
2022-10-07T06:56:32.830Z,8.56
2022-10-07T06:58:58.979Z,8.60
2022-10-07T07:01:25.175Z,8.70
2022-10-07T07:03:51.299Z,8.79
2022-10-07T07:06:17.405Z,8.93
2022-10-07T07:08:43.525Z,9.03
2022-10-07T07:11:09.746Z,8.64
2022-10-07T07:13:36.157Z,8.67
2022-10-07T07:16:02.297Z,8.79
2022-10-07T07:18:28.606Z,9.00
2022-10-07T07:20:55.651Z,9.06
2022-10-07T07:23:21.792Z,9.18
2022-10-07T07:25:47.949Z,9.31
2022-10-07T07:28:14.146Z,9.41
2022-10-07T07:30:40.315Z,9.52
2022-10-07T07:33:06.483Z,9.56
2022-10-07T07:35:32.611Z,9.63
2022-10-07T07:37:58.750Z,9.64
2022-10-07T07:40:24.903Z,9.66
2022-10-07T07:42:51.038Z,9.54
2022-10-07T07:45:17.137Z,9.67
2022-10-07T07:47:43.583Z,9.73
2022-10-07T07:50:09.968Z,9.77
2022-10-07T07:52:36.071Z,9.82
2022-10-07T07:55:02.173Z,10.00
2022-10-07T07:57:28.285Z,9.98
2022-10-07T07:59:54.408Z,10.09
2022-10-07T08:02:20.554Z,10.16
2022-10-07T08:04:46.726Z,10.24
2022-10-07T08:07:12.818Z,10.29
2022-10-07T08:09:38.913Z,10.38
2022-10-07T08:12:05.104Z,10.36
2022-10-07T08:14:31.246Z,10.44
2022-10-07T08:16:57.398Z,10.48
2022-10-07T08:19:24.030Z,10.62
2022-10-07T08:21:50.127Z,10.75
2022-10-07T08:24:16.212Z,10.85
2022-10-07T08:26:42.320Z,10.92
2022-10-07T08:29:08.401Z,10.97
2022-10-07T08:31:34.522Z,11.02
2022-10-07T08:34:00.623Z,11.08
2022-10-07T08:36:26.717Z,11.19
2022-10-07T08:38:52.807Z,11.25
2022-10-07T08:41:18.926Z,11.29
2022-10-07T08:43:45.020Z,11.43
2022-10-07T08:46:11.162Z,11.48
2022-10-07T08:48:37.352Z,11.60
2022-10-07T08:51:03.467Z,11.65
2022-10-07T08:53:29.707Z,11.75
2022-10-07T08:55:55.812Z,11.87
2022-10-07T08:58:21.907Z,11.94
2022-10-07T09:00:49.170Z,12.02
2022-10-07T09:03:17.814Z,12.12
2022-10-07T09:05:47.209Z,12.20
2022-10-07T09:08:13.315Z,12.27
2022-10-07T09:10:39.432Z,12.35
2022-10-07T09:13:05.521Z,12.45
2022-10-07T09:15:31.677Z,12.47
2022-10-07T09:17:57.851Z,12.55
2022-10-07T09:20:23.999Z,12.62
2022-10-07T09:22:50.106Z,12.66
2022-10-07T09:25:16.212Z,12.74
2022-10-07T09:27:42.657Z,12.81
2022-10-07T09:30:10.552Z,12.89
2022-10-07T09:32:36.666Z,12.96
2022-10-07T09:35:02.753Z,12.99
2022-10-07T09:37:28.861Z,13.04
2022-10-07T09:39:55.025Z,13.14
2022-10-07T09:42:21.133Z,13.20
2022-10-07T09:44:47.234Z,13.28
2022-10-07T09:47:13.401Z,13.28
2022-10-07T09:49:39.505Z,13.57
2022-10-07T09:52:05.585Z,13.42
2022-10-07T09:54:31.695Z,13.48
2022-10-07T09:56:57.802Z,13.56
2022-10-07T09:59:23.887Z,13.65
2022-10-07T10:01:50.008Z,13.74
2022-10-07T10:04:16.161Z,13.78
2022-10-07T10:06:42.236Z,13.85
2022-10-07T10:09:08.334Z,13.94
2022-10-07T10:11:34.444Z,13.94
2022-10-07T10:14:00.546Z,14.03
2022-10-07T10:16:26.745Z,14.07
2022-10-07T10:18:52.902Z,14.11
2022-10-07T10:21:18.993Z,14.19
2022-10-07T10:23:45.599Z,14.31
2022-10-07T10:26:11.693Z,14.32
2022-10-07T10:28:37.847Z,14.34
2022-10-07T10:31:04.125Z,14.38
2022-10-07T10:33:30.316Z,14.43
2022-10-07T10:35:56.439Z,14.50
2022-10-07T10:38:22.555Z,14.56
2022-10-07T10:40:48.654Z,14.58
2022-10-07T10:43:14.757Z,14.61
2022-10-07T10:45:40.869Z,14.60
2022-10-07T10:48:06.983Z,14.61
2022-10-07T10:50:33.059Z,14.82
2022-10-07T10:52:59.160Z,14.73
2022-10-07T10:55:25.245Z,14.75
2022-10-07T10:57:51.341Z,14.81
2022-10-07T11:00:17.495Z,15.01
2022-10-07T11:02:44.229Z,14.87
2022-10-07T11:05:10.629Z,14.93
2022-10-07T11:07:36.741Z,15.00
2022-10-07T11:10:02.829Z,15.04
2022-10-07T11:12:28.924Z,15.11
2022-10-07T11:14:57.693Z,15.09
2022-10-07T11:17:23.995Z,15.12
2022-10-07T11:19:50.117Z,15.13
2022-10-07T11:22:16.224Z,15.09
2022-10-07T11:24:42.392Z,15.27
2022-10-07T11:27:08.505Z,15.34
2022-10-07T11:29:35.108Z,15.39
2022-10-07T11:32:01.210Z,15.36
2022-10-07T11:34:27.313Z,15.53
2022-10-07T11:36:54.065Z,15.58
2022-10-07T11:39:20.164Z,15.62
2022-10-07T11:41:46.244Z,15.67
2022-10-07T11:44:12.358Z,15.89
2022-10-07T11:46:38.483Z,15.73
2022-10-07T11:49:04.613Z,15.74
2022-10-07T11:51:30.717Z,15.67
2022-10-07T11:53:56.845Z,15.74
2022-10-07T11:56:22.942Z,15.71
2022-10-07T11:58:49.046Z,15.70
2022-10-07T12:01:15.133Z,15.74
2022-10-07T12:03:41.219Z,15.75
2022-10-07T12:06:07.322Z,15.86
2022-10-07T12:08:33.409Z,15.87
2022-10-07T12:10:59.484Z,15.75
2022-10-07T12:13:25.590Z,15.84
2022-10-07T12:15:51.773Z,15.92
2022-10-07T12:18:17.931Z,16.01
2022-10-07T12:20:44.113Z,16.02
2022-10-07T12:23:10.219Z,16.13
2022-10-07T12:25:36.301Z,16.10
2022-10-07T12:28:02.497Z,16.15
2022-10-07T12:30:28.611Z,16.17
2022-10-07T12:32:54.755Z,16.13
2022-10-07T12:35:20.867Z,16.04
2022-10-07T12:37:46.966Z,16.03
2022-10-07T12:40:13.047Z,16.48
2022-10-07T12:42:39.151Z,16.58
2022-10-07T12:45:05.244Z,16.23
2022-10-07T12:47:31.342Z,16.19
2022-10-07T12:49:57.457Z,16.13
2022-10-07T12:52:23.545Z,16.14
2022-10-07T12:54:49.625Z,16.11
2022-10-07T12:57:15.741Z,16.15
2022-10-07T12:59:41.833Z,16.19
2022-10-07T13:02:08.146Z,16.10
2022-10-07T13:04:34.390Z,16.22
2022-10-07T13:07:00.475Z,16.22
2022-10-07T13:09:26.550Z,16.28
2022-10-07T13:11:52.673Z,16.39
2022-10-07T13:14:18.794Z,16.41
2022-10-07T13:16:44.949Z,16.38
2022-10-07T13:19:11.097Z,16.44
2022-10-07T13:21:37.193Z,16.38
2022-10-07T13:24:03.298Z,16.36
2022-10-07T13:26:29.468Z,16.38
2022-10-07T13:28:55.558Z,16.35
2022-10-07T13:31:21.677Z,16.45
2022-10-07T13:33:48.196Z,16.47
2022-10-07T13:36:14.305Z,16.56
2022-10-07T13:38:40.392Z,16.61
2022-10-07T13:41:06.863Z,16.60
2022-10-07T13:43:32.953Z,16.69
2022-10-07T13:45:59.088Z,16.71
2022-10-07T13:48:25.235Z,16.73
2022-10-07T13:50:51.309Z,16.74
2022-10-07T13:53:17.454Z,16.75
2022-10-07T13:55:43.574Z,16.74
2022-10-07T13:58:09.666Z,16.86
2022-10-07T14:00:35.740Z,16.84
2022-10-07T14:03:01.923Z,16.89
2022-10-07T14:05:28.082Z,16.89
2022-10-07T14:07:54.169Z,16.79
2022-10-07T14:10:20.267Z,16.89
2022-10-07T14:12:46.515Z,16.95
2022-10-07T14:15:12.793Z,16.95
2022-10-07T14:17:38.927Z,16.91
2022-10-07T14:20:05.015Z,16.89
2022-10-07T14:22:31.115Z,16.89
2022-10-07T14:24:57.242Z,16.84
2022-10-07T14:27:23.338Z,16.90
2022-10-07T14:29:49.417Z,17.07
2022-10-07T14:32:15.526Z,17.09
2022-10-07T14:34:41.609Z,17.18
2022-10-07T14:37:07.715Z,17.20
2022-10-07T14:39:33.874Z,17.28
2022-10-07T14:41:59.960Z,17.26
2022-10-07T14:44:26.055Z,17.30
2022-10-07T14:46:52.168Z,17.52
2022-10-07T14:49:18.255Z,17.55
2022-10-07T14:51:44.364Z,17.68
2022-10-07T14:54:10.463Z,18.01
2022-10-07T14:56:36.563Z,18.12
2022-10-07T14:59:02.649Z,18.32
2022-10-07T15:01:28.774Z,18.31
2022-10-07T15:03:54.951Z,18.33
2022-10-07T15:06:21.106Z,18.49
2022-10-07T15:08:47.367Z,18.88
2022-10-07T15:11:13.465Z,19.12
2022-10-07T15:13:39.565Z,19.20
2022-10-07T15:16:05.670Z,18.92
2022-10-07T15:18:31.756Z,19.43
2022-10-07T15:20:57.914Z,19.76
2022-10-07T15:23:24.029Z,20.32
2022-10-07T15:25:50.135Z,20.62
2022-10-07T15:28:16.248Z,21.18
2022-10-07T15:30:42.398Z,21.50
2022-10-07T15:33:08.580Z,21.81
2022-10-07T15:35:34.665Z,21.85
2022-10-07T15:38:00.777Z,21.99
2022-10-07T15:40:26.866Z,21.85
2022-10-07T15:42:52.962Z,21.91
2022-10-07T15:45:19.085Z,21.92
2022-10-07T15:47:45.177Z,21.82
2022-10-07T15:50:11.287Z,21.87
2022-10-07T15:52:37.419Z,21.53
2022-10-07T15:55:07.346Z,22.23
2022-10-07T15:57:33.811Z,21.75
2022-10-07T15:59:59.921Z,20.43
2022-10-07T16:02:26.089Z,20.41
2022-10-07T16:04:52.229Z,20.88
2022-10-07T16:07:18.377Z,20.35
2022-10-07T16:09:44.470Z,19.67
2022-10-07T16:12:10.594Z,18.78
2022-10-07T16:14:36.714Z,18.48
2022-10-07T16:17:02.806Z,18.42
2022-10-07T16:19:28.951Z,18.87
2022-10-07T16:21:55.106Z,18.79
2022-10-07T16:24:21.196Z,18.76
2022-10-07T16:26:47.300Z,18.65
2022-10-07T16:29:13.402Z,18.68
2022-10-07T16:31:39.642Z,18.37
2022-10-07T16:34:05.796Z,18.12
2022-10-07T16:36:35.325Z,18.03
2022-10-07T16:39:01.422Z,18.01
2022-10-07T16:41:27.524Z,17.73
2022-10-07T16:43:54.115Z,17.51
2022-10-07T16:46:20.237Z,17.29
2022-10-07T16:48:46.370Z,17.14
2022-10-07T16:51:13.136Z,16.98
2022-10-07T16:53:39.391Z,16.82
2022-10-07T16:56:05.674Z,16.68
2022-10-07T16:58:32.020Z,16.50
2022-10-07T17:00:58.256Z,16.40
2022-10-07T17:03:24.659Z,16.31
2022-10-07T17:05:50.872Z,16.15
2022-10-07T17:08:17.104Z,16.06
2022-10-07T17:10:43.372Z,15.93
2022-10-07T17:13:09.735Z,15.83
2022-10-07T17:15:36.091Z,15.80
2022-10-07T17:18:02.476Z,15.67
2022-10-07T17:20:29.002Z,15.56
2022-10-07T17:22:55.289Z,15.45
2022-10-07T17:25:21.750Z,15.38
2022-10-07T17:27:48.334Z,15.29
2022-10-07T17:30:14.849Z,15.21
2022-10-07T17:32:41.169Z,15.09
2022-10-07T17:35:07.366Z,14.85
2022-10-07T17:37:33.792Z,14.72
2022-10-07T17:40:00.106Z,14.79
2022-10-07T17:42:26.357Z,14.67
2022-10-07T17:44:52.574Z,14.55
2022-10-07T17:47:18.998Z,14.53
2022-10-07T17:49:45.953Z,14.57
2022-10-07T17:52:12.912Z,14.32
2022-10-07T17:54:39.055Z,14.24
2022-10-07T17:57:05.300Z,14.09
2022-10-07T17:59:31.508Z,14.15
2022-10-07T18:01:57.881Z,14.05
2022-10-07T18:04:25.312Z,13.95
2022-10-07T18:06:51.774Z,14.17
2022-10-07T18:09:17.976Z,13.96
2022-10-07T18:11:44.506Z,13.91
2022-10-07T18:14:10.805Z,13.76
2022-10-07T18:16:37.182Z,13.76
2022-10-07T18:19:03.423Z,13.79
2022-10-07T18:21:29.524Z,13.80
2022-10-07T18:23:55.722Z,13.72
2022-10-07T18:26:21.993Z,13.71
2022-10-07T18:28:48.195Z,13.72
2022-10-07T18:31:14.407Z,13.60
2022-10-07T18:33:40.665Z,13.59
2022-10-07T18:36:06.919Z,13.28
2022-10-07T18:38:33.119Z,12.98
2022-10-07T18:40:59.461Z,13.04
2022-10-07T18:43:25.617Z,12.98
2022-10-07T18:45:51.846Z,12.99
2022-10-07T18:48:18.137Z,12.91
2022-10-07T18:50:44.325Z,12.95
2022-10-07T18:53:10.494Z,12.96
2022-10-07T18:55:36.747Z,12.98
2022-10-07T18:58:02.910Z,12.99
2022-10-07T19:00:29.033Z,13.04
2022-10-07T19:02:55.256Z,13.09
2022-10-07T19:05:21.476Z,13.08
2022-10-07T19:07:48.097Z,13.07
2022-10-07T19:10:14.652Z,13.05
2022-10-07T19:12:40.742Z,13.02
2022-10-07T19:15:06.928Z,12.98
2022-10-07T19:17:33.145Z,12.95
2022-10-07T19:19:59.258Z,12.95
2022-10-07T19:22:25.524Z,13.00
2022-10-07T19:24:51.909Z,13.06
2022-10-07T19:27:18.113Z,13.03
2022-10-07T19:29:44.334Z,13.00
2022-10-07T19:32:10.500Z,13.03
2022-10-07T19:34:36.669Z,13.04
2022-10-07T19:37:02.778Z,13.04
2022-10-07T19:39:28.915Z,13.06
2022-10-07T19:41:55.299Z,13.02
2022-10-07T19:44:21.474Z,13.05
2022-10-07T19:46:47.657Z,13.03
2022-10-07T19:49:13.767Z,13.00
2022-10-07T19:51:40.892Z,13.02
2022-10-07T19:54:07.481Z,13.03
2022-10-07T19:56:33.559Z,13.06
2022-10-07T19:58:59.658Z,13.05
2022-10-07T20:01:25.843Z,13.01
2022-10-07T20:03:52.019Z,13.00
2022-10-07T20:06:18.107Z,13.03
2022-10-07T20:08:44.262Z,12.96
2022-10-07T20:11:10.546Z,12.96
2022-10-07T20:13:36.803Z,12.92
2022-10-07T20:16:04.427Z,12.85
2022-10-07T20:18:30.508Z,12.62
2022-10-07T20:20:56.654Z,12.56
2022-10-07T20:23:22.962Z,12.39
2022-10-07T20:25:49.094Z,12.37
2022-10-07T20:28:15.438Z,12.45
2022-10-07T20:30:41.616Z,12.42
2022-10-07T20:33:07.746Z,12.28
2022-10-07T20:35:34.161Z,12.19
2022-10-07T20:38:00.432Z,12.18
2022-10-07T20:40:26.746Z,12.04
2022-10-07T20:42:53.460Z,12.03
2022-10-07T20:45:19.748Z,11.89
2022-10-07T20:47:45.921Z,11.94
2022-10-07T20:50:12.084Z,12.01
2022-10-07T20:52:38.183Z,11.93
2022-10-07T20:55:04.265Z,11.92
2022-10-07T20:57:30.389Z,11.94
2022-10-07T20:59:56.542Z,12.04
2022-10-07T21:02:22.681Z,11.97
2022-10-07T21:04:48.811Z,11.85
2022-10-07T21:07:15.264Z,11.72
2022-10-07T21:09:41.343Z,11.72
2022-10-07T21:12:07.660Z,11.79
2022-10-07T21:14:33.942Z,11.84
2022-10-07T21:17:00.143Z,11.92
2022-10-07T21:19:26.312Z,11.91
2022-10-07T21:21:52.425Z,11.81
2022-10-07T21:24:18.572Z,11.78
2022-10-07T21:26:44.695Z,11.70
2022-10-07T21:29:10.799Z,11.67
2022-10-07T21:31:36.890Z,11.58
2022-10-07T21:34:02.981Z,11.48
2022-10-07T21:36:29.095Z,11.52
2022-10-07T21:38:55.265Z,11.46
2022-10-07T21:41:21.368Z,11.45
2022-10-07T21:43:47.468Z,11.26
2022-10-07T21:46:13.600Z,11.15
2022-10-07T21:48:39.749Z,11.28
2022-10-07T21:51:09.483Z,11.34
2022-10-07T21:53:35.985Z,11.16
2022-10-07T21:56:02.076Z,11.25
2022-10-07T21:58:28.169Z,11.28
2022-10-07T22:00:54.248Z,11.21
2022-10-07T22:03:20.331Z,11.35
2022-10-07T22:05:46.434Z,11.36
2022-10-07T22:08:12.520Z,11.13
2022-10-07T22:10:38.618Z,11.16
2022-10-07T22:13:04.727Z,11.14
2022-10-07T22:15:30.840Z,11.02
2022-10-07T22:17:56.971Z,11.14
2022-10-07T22:20:23.131Z,11.18
2022-10-07T22:22:49.461Z,11.22
2022-10-07T22:25:15.649Z,11.08
2022-10-07T22:27:41.765Z,11.16
2022-10-07T22:30:07.870Z,11.22
2022-10-07T22:32:33.966Z,11.18
2022-10-07T22:35:00.074Z,11.29
2022-10-07T22:37:26.169Z,11.37
2022-10-07T22:39:52.267Z,11.15
2022-10-07T22:42:18.361Z,11.32
2022-10-07T22:44:44.453Z,11.34
2022-10-07T22:47:10.537Z,11.44
2022-10-07T22:49:36.632Z,11.40
2022-10-07T22:52:02.729Z,11.45
2022-10-07T22:54:28.831Z,11.47
2022-10-07T22:56:54.950Z,11.40
2022-10-07T22:59:21.037Z,11.39
2022-10-07T23:01:47.133Z,11.37
2022-10-07T23:04:13.607Z,11.34
2022-10-07T23:06:39.700Z,11.33
2022-10-07T23:09:05.791Z,11.29
2022-10-07T23:11:32.011Z,11.32
2022-10-07T23:13:58.113Z,11.25
2022-10-07T23:16:24.292Z,11.26
2022-10-07T23:18:50.479Z,11.36
2022-10-07T23:21:16.589Z,11.32
2022-10-07T23:23:42.688Z,11.37
2022-10-07T23:26:08.800Z,11.43
2022-10-07T23:28:34.912Z,11.40
2022-10-07T23:31:01.049Z,11.46
2022-10-07T23:33:27.193Z,11.43
2022-10-07T23:35:53.273Z,11.41
2022-10-07T23:38:19.346Z,11.39
2022-10-07T23:40:45.450Z,11.44
2022-10-07T23:43:11.554Z,11.43
2022-10-07T23:45:37.652Z,11.51
2022-10-07T23:48:03.751Z,11.50
2022-10-07T23:50:29.842Z,11.35
2022-10-07T23:52:55.943Z,11.30
2022-10-07T23:55:22.129Z,11.32
2022-10-07T23:57:48.224Z,11.28
